createdAt,value
2018-05-15T00:01:59.317Z,4.73
2018-05-15T00:04:25.484Z,4.67
2018-05-15T00:06:51.737Z,4.77
2018-05-15T00:09:18.648Z,5.00
2018-05-15T00:11:44.834Z,4.80
2018-05-15T00:14:11.836Z,4.40
2018-05-15T00:16:38.010Z,5.00
2018-05-15T00:19:04.210Z,4.53
2018-05-15T00:21:31.124Z,4.03
2018-05-15T00:23:57.254Z,4.50
2018-05-15T00:26:23.456Z,4.40
2018-05-15T00:28:49.655Z,4.80
2018-05-15T00:31:16.552Z,5.17
2018-05-15T00:33:42.730Z,4.70
2018-05-15T00:36:08.903Z,4.23
2018-05-15T00:38:35.100Z,4.40
2018-05-15T00:41:01.319Z,4.50
2018-05-15T00:43:27.454Z,5.00
2018-05-15T00:45:53.616Z,4.80
2018-05-15T00:48:19.799Z,5.27
2018-05-15T00:50:45.926Z,4.50
2018-05-15T00:53:12.134Z,4.20
2018-05-15T00:55:44.010Z,4.87
2018-05-15T00:58:10.963Z,4.43
2018-05-15T01:00:37.153Z,4.93
2018-05-15T01:03:03.369Z,4.30
2018-05-15T01:05:29.544Z,4.60
2018-05-15T01:07:56.449Z,4.93
2018-05-15T01:10:22.677Z,4.67
2018-05-15T01:12:48.900Z,4.80
2018-05-15T01:15:15.088Z,3.97
2018-05-15T01:17:41.324Z,4.07
2018-05-15T01:20:07.487Z,4.50
2018-05-15T01:22:33.636Z,5.13
2018-05-15T01:24:59.797Z,4.47
2018-05-15T01:27:25.961Z,4.63
2018-05-15T01:29:52.116Z,4.10
2018-05-15T01:32:18.294Z,4.50
2018-05-15T01:34:44.487Z,4.47
2018-05-15T01:37:11.422Z,4.73
2018-05-15T01:39:38.329Z,5.00
2018-05-15T01:42:04.524Z,4.83
2018-05-15T01:44:30.737Z,5.07
2018-05-15T01:46:57.663Z,4.07
2018-05-15T01:49:23.805Z,4.97
2018-05-15T01:51:50.748Z,4.20
2018-05-15T01:54:17.723Z,4.83
2018-05-15T01:56:43.875Z,4.47
2018-05-15T01:59:10.051Z,5.00
2018-05-15T02:01:36.970Z,4.67
2018-05-15T02:04:03.106Z,5.50
2018-05-15T02:06:29.277Z,4.50
2018-05-15T02:08:55.446Z,4.53
2018-05-15T02:11:21.617Z,4.50
2018-05-15T02:13:47.773Z,4.17
2018-05-15T02:16:13.972Z,4.53
2018-05-15T02:18:40.899Z,4.87
2018-05-15T02:21:07.085Z,5.27
2018-05-15T02:23:33.248Z,5.10
2018-05-15T02:25:59.457Z,4.70
2018-05-15T02:28:25.673Z,4.37
2018-05-15T02:30:51.826Z,4.70
2018-05-15T02:33:18.038Z,5.07
2018-05-15T02:35:44.169Z,4.93
2018-05-15T02:38:10.404Z,4.33
2018-05-15T02:40:36.585Z,4.43
2018-05-15T02:43:02.737Z,4.67
2018-05-15T02:45:28.913Z,4.20
2018-05-15T02:47:55.811Z,5.10
2018-05-15T02:50:21.995Z,4.90
2018-05-15T02:52:48.885Z,4.73
2018-05-15T02:55:15.075Z,5.10
2018-05-15T02:57:41.235Z,4.70
2018-05-15T03:00:07.380Z,5.10
2018-05-15T03:02:33.556Z,4.70
2018-05-15T03:04:59.747Z,5.10
2018-05-15T03:07:25.877Z,5.17
2018-05-15T03:09:52.112Z,5.90
2018-05-15T03:12:18.303Z,4.43
2018-05-15T03:14:44.525Z,4.30
2018-05-15T03:17:10.810Z,5.33
2018-05-15T03:19:37.718Z,4.53
2018-05-15T03:22:03.905Z,5.00
2018-05-15T03:24:30.118Z,4.87
2018-05-15T03:26:57.065Z,5.40
2018-05-15T03:29:23.958Z,4.70
2018-05-15T03:31:50.155Z,5.20
2018-05-15T03:34:16.334Z,5.00
2018-05-15T03:36:42.574Z,5.60
2018-05-15T03:39:09.473Z,5.00
2018-05-15T03:41:35.665Z,5.03
2018-05-15T03:44:02.569Z,4.67
2018-05-15T03:46:28.769Z,5.40
2018-05-15T03:48:54.926Z,5.13
2018-05-15T03:51:21.147Z,4.63
2018-05-15T03:53:47.313Z,4.80
2018-05-15T03:56:14.287Z,5.20
2018-05-15T03:58:40.754Z,4.80
2018-05-15T04:01:19.319Z,4.87
2018-05-15T04:03:57.613Z,4.30
2018-05-15T04:06:35.969Z,5.07
2018-05-15T04:09:02.239Z,5.07
2018-05-15T04:11:29.350Z,4.43
2018-05-15T04:13:55.554Z,4.77
2018-05-15T04:16:22.498Z,4.50
2018-05-15T04:18:49.446Z,4.63
2018-05-15T04:21:16.368Z,5.07
2018-05-15T04:23:42.594Z,4.77
2018-05-15T04:26:08.785Z,4.87
2018-05-15T04:28:34.965Z,5.17
2018-05-15T04:31:01.170Z,4.33
2018-05-15T04:33:27.305Z,5.20
2018-05-15T04:35:53.527Z,6.03
2018-05-15T04:38:19.707Z,4.80
2018-05-15T04:40:45.890Z,4.67
2018-05-15T04:43:12.095Z,5.20
2018-05-15T04:45:38.301Z,5.17
2018-05-15T04:48:04.548Z,5.97
2018-05-15T04:50:30.700Z,5.33
2018-05-15T04:52:56.896Z,5.33
2018-05-15T04:55:23.107Z,5.70
2018-05-15T04:57:49.275Z,5.27
2018-05-15T05:00:15.477Z,5.70
2018-05-15T05:02:41.684Z,5.87
2018-05-15T05:05:08.646Z,5.70
2018-05-15T05:07:35.366Z,5.33
2018-05-15T05:10:01.565Z,6.47
2018-05-15T05:12:27.770Z,6.53
2018-05-15T05:14:53.976Z,6.33
2018-05-15T05:17:20.187Z,4.80
2018-05-15T05:19:47.098Z,5.43
2018-05-15T05:22:13.306Z,5.53
2018-05-15T05:24:39.510Z,6.80
2018-05-15T05:27:05.756Z,6.60
2018-05-15T05:29:32.655Z,5.70
2018-05-15T05:31:59.624Z,6.87
2018-05-15T05:34:26.577Z,6.50
2018-05-15T05:36:52.772Z,6.13
2018-05-15T05:39:19.668Z,5.37
2018-05-15T05:41:45.848Z,5.60
2018-05-15T05:44:12.783Z,6.20
2018-05-15T05:46:39.728Z,6.13
2018-05-15T05:49:05.936Z,5.37
2018-05-15T05:51:32.137Z,5.27
2018-05-15T05:53:58.303Z,5.77
2018-05-15T05:56:24.535Z,5.37
2018-05-15T05:58:50.688Z,5.60
2018-05-15T06:01:18.293Z,5.63
2018-05-15T06:03:44.455Z,6.60
2018-05-15T06:06:10.678Z,5.77
2018-05-15T06:08:36.937Z,5.23
2018-05-15T06:11:06.743Z,5.17
2018-05-15T06:13:33.724Z,5.73
2018-05-15T06:15:59.912Z,5.50
2018-05-15T06:18:26.844Z,5.17
2018-05-15T06:20:53.015Z,5.73
2018-05-15T06:23:19.225Z,6.33
2018-05-15T06:25:46.166Z,5.40
2018-05-15T06:28:13.104Z,6.37
2018-05-15T06:30:40.106Z,5.60
2018-05-15T06:33:06.275Z,5.80
2018-05-15T06:35:33.189Z,5.57
2018-05-15T06:37:59.413Z,5.77
2018-05-15T06:40:25.641Z,5.30
2018-05-15T06:42:51.861Z,5.40
2018-05-15T06:45:18.037Z,6.13
2018-05-15T06:47:44.949Z,5.60
2018-05-15T06:50:11.171Z,5.77
2018-05-15T06:52:37.417Z,6.03
2018-05-15T06:55:03.593Z,4.97
2018-05-15T06:57:29.877Z,5.60
2018-05-15T06:59:56.099Z,5.27
2018-05-15T07:02:22.332Z,5.37
2018-05-15T07:04:48.505Z,5.33
2018-05-15T07:07:14.706Z,4.90
2018-05-15T07:09:42.467Z,6.00
2018-05-15T07:12:08.671Z,5.10
2018-05-15T07:14:34.901Z,5.10
2018-05-15T07:17:03.292Z,5.73
2018-05-15T07:19:29.602Z,5.30
2018-05-15T07:21:55.766Z,5.43
2018-05-15T07:24:22.742Z,5.90
2018-05-15T07:26:48.956Z,5.07
2018-05-15T07:29:15.886Z,5.50
2018-05-15T07:31:42.826Z,5.37
2018-05-15T07:34:09.012Z,5.27
2018-05-15T07:36:35.230Z,5.20
2018-05-15T07:39:01.512Z,5.73
2018-05-15T07:41:28.462Z,5.00
2018-05-15T07:43:54.688Z,4.83
2018-05-15T07:46:21.799Z,5.70
2018-05-15T07:48:48.008Z,5.17
2018-05-15T07:51:14.194Z,5.90
2018-05-15T07:53:40.531Z,4.80
2018-05-15T07:56:06.654Z,5.40
2018-05-15T07:58:32.821Z,5.83
2018-05-15T08:00:58.997Z,4.73
2018-05-15T08:13:10.215Z,5.00
2018-05-15T08:15:36.424Z,5.30
2018-05-15T08:18:02.636Z,5.40
2018-05-15T08:20:29.603Z,5.23
2018-05-15T08:22:55.777Z,4.90
2018-05-15T08:25:21.954Z,5.87
2018-05-15T08:27:48.995Z,5.20
2018-05-15T08:30:15.204Z,4.67
2018-05-15T08:32:42.180Z,5.17
2018-05-15T08:35:08.338Z,4.73
2018-05-15T08:37:34.647Z,4.30
2018-05-15T08:40:00.736Z,4.87
2018-05-15T08:42:27.676Z,5.30
2018-05-15T08:44:54.625Z,4.43
2018-05-15T08:47:21.601Z,4.80
2018-05-15T08:49:47.906Z,4.73
2018-05-15T08:52:14.906Z,4.70
2018-05-15T08:54:41.125Z,4.70
2018-05-15T08:57:07.321Z,4.63
2018-05-15T08:59:34.866Z,4.67
2018-05-15T09:02:01.800Z,4.60
2018-05-15T09:04:28.097Z,4.67
2018-05-15T09:06:54.301Z,4.50
2018-05-15T09:09:20.610Z,4.40
2018-05-15T09:11:46.751Z,4.47
2018-05-15T09:14:12.957Z,4.90
2018-05-15T09:16:39.899Z,5.10
2018-05-15T09:19:06.893Z,4.33
2018-05-15T09:21:33.080Z,5.10
2018-05-15T09:24:00.057Z,5.57
2018-05-15T09:26:26.275Z,4.40
2018-05-15T09:28:53.028Z,4.50
2018-05-15T09:31:20.123Z,4.50
2018-05-15T09:33:46.349Z,4.53
2018-05-15T09:36:12.583Z,4.83
2018-05-15T09:38:38.829Z,3.97
2018-05-15T09:41:05.824Z,5.10
2018-05-15T09:46:28.277Z,4.30
2018-05-15T09:48:54.555Z,4.10
2018-05-15T09:51:21.641Z,4.13
2018-05-15T09:53:47.911Z,4.20
2018-05-15T09:56:14.094Z,3.50
2018-05-15T09:58:41.011Z,3.63
2018-05-15T10:01:07.286Z,4.00
2018-05-15T10:03:33.553Z,4.30
2018-05-15T10:05:59.746Z,3.57
2018-05-15T10:08:25.926Z,4.17
2018-05-15T10:10:52.203Z,3.80
2018-05-15T10:13:18.568Z,3.73
2018-05-15T10:15:44.807Z,4.50
2018-05-15T10:18:11.011Z,4.27
2018-05-15T10:20:37.242Z,3.77
2018-05-15T10:23:04.002Z,4.07
2018-05-15T10:25:30.185Z,4.00
2018-05-15T10:27:56.334Z,3.90
2018-05-15T10:30:22.605Z,4.17
2018-05-15T10:32:48.906Z,4.00
2018-05-15T10:35:15.283Z,4.30
2018-05-15T10:37:42.346Z,4.80
2018-05-15T10:40:09.875Z,3.90
2018-05-15T10:42:36.836Z,3.87
2018-05-15T10:45:03.802Z,3.87
2018-05-15T10:47:30.020Z,4.00
2018-05-15T10:49:56.961Z,3.57
2018-05-15T10:52:24.072Z,3.90
2018-05-15T10:54:50.268Z,4.20
2018-05-15T10:57:16.489Z,4.00
2018-05-15T10:59:42.759Z,4.30
2018-05-15T11:02:09.726Z,3.47
2018-05-15T11:04:36.073Z,4.10
2018-05-15T11:07:03.178Z,3.70
2018-05-15T11:09:29.499Z,3.73
2018-05-15T11:11:55.666Z,3.77
2018-05-15T11:14:25.090Z,4.77
2018-05-15T11:16:53.014Z,3.63
2018-05-15T11:19:31.373Z,4.17
2018-05-15T11:22:11.223Z,3.80
2018-05-15T11:24:49.441Z,4.63
2018-05-15T11:27:16.560Z,4.40
2018-05-15T11:29:43.608Z,4.13
2018-05-15T11:32:09.811Z,4.40
2018-05-15T11:34:36.003Z,5.33
2018-05-15T11:37:02.294Z,4.23
2018-05-15T11:39:30.237Z,4.40
2018-05-15T11:41:56.524Z,4.73
2018-05-15T11:44:22.651Z,3.97
2018-05-15T11:46:49.656Z,4.20
2018-05-15T11:49:16.567Z,4.60
2018-05-15T11:51:42.809Z,4.53
2018-05-15T11:54:08.356Z,4.27
2018-05-15T11:56:34.669Z,4.43
2018-05-15T11:59:03.740Z,4.30
2018-05-15T12:01:30.191Z,4.53
2018-05-15T12:03:56.531Z,4.83
2018-05-15T12:06:24.151Z,4.90
2018-05-15T12:08:50.419Z,4.27
2018-05-15T12:11:16.637Z,5.03
2018-05-15T12:13:42.835Z,4.73
2018-05-15T12:16:09.148Z,5.40
2018-05-15T12:18:36.368Z,5.03
2018-05-15T12:21:02.621Z,4.80
2018-05-15T12:23:29.525Z,4.37
2018-05-15T12:25:55.704Z,5.50
2018-05-15T12:28:22.624Z,5.17
2018-05-15T12:30:49.790Z,5.20
2018-05-15T12:33:16.878Z,4.30
2018-05-15T12:35:43.112Z,4.83
2018-05-15T12:38:10.026Z,5.37
2018-05-15T12:40:36.990Z,5.40
2018-05-15T12:43:03.180Z,5.07
2018-05-15T12:45:29.369Z,5.30
2018-05-15T12:47:55.597Z,5.83
2018-05-15T12:50:21.762Z,5.43
2018-05-15T12:52:47.944Z,5.33
2018-05-15T12:55:14.146Z,5.50
2018-05-15T12:57:41.058Z,5.17
2018-05-15T13:00:08.024Z,5.00
2018-05-15T13:02:35.046Z,5.03
2018-05-15T13:05:01.273Z,4.90
2018-05-15T13:07:27.514Z,4.60
2018-05-15T13:09:55.841Z,5.10
2018-05-15T13:12:23.195Z,4.70
2018-05-15T13:14:49.384Z,4.60
2018-05-15T13:17:16.355Z,5.20
2018-05-15T13:19:42.603Z,5.13
2018-05-15T13:22:08.798Z,4.37
2018-05-15T13:24:35.814Z,5.07
2018-05-15T13:27:02.242Z,4.47
2018-05-15T13:29:28.420Z,4.67
2018-05-15T13:31:55.445Z,4.60
2018-05-15T13:34:22.380Z,4.67
2018-05-15T13:36:48.572Z,4.50
2018-05-15T13:39:14.774Z,5.20
2018-05-15T13:41:40.966Z,4.37
2018-05-15T13:44:07.135Z,4.53
2018-05-15T13:46:33.316Z,4.80
2018-05-15T13:48:59.594Z,4.23
2018-05-15T13:51:25.768Z,4.53
2018-05-15T13:56:42.142Z,4.50
2018-05-15T13:59:08.324Z,4.50
2018-05-15T14:01:34.508Z,4.73
2018-05-15T14:04:00.664Z,5.10
2018-05-15T14:06:27.448Z,5.00
2018-05-15T14:08:54.360Z,5.33
2018-05-15T14:11:20.600Z,5.23
2018-05-15T14:13:46.858Z,5.37
2018-05-15T14:16:13.038Z,5.37
2018-05-15T14:18:39.217Z,5.47
2018-05-15T14:21:05.447Z,5.23
2018-05-15T14:23:32.089Z,5.30
2018-05-15T14:25:58.354Z,4.30
2018-05-15T14:28:24.561Z,5.23
2018-05-15T14:30:50.834Z,5.20
2018-05-15T14:33:17.122Z,4.83
2018-05-15T14:35:43.319Z,5.10
2018-05-15T14:38:10.299Z,5.93
2018-05-15T14:40:36.543Z,5.73
2018-05-15T14:43:15.023Z,5.40
2018-05-15T14:45:41.959Z,5.67
2018-05-15T14:48:08.935Z,5.93
2018-05-15T14:50:47.426Z,5.40
2018-05-15T14:53:14.439Z,5.37
2018-05-15T14:55:40.605Z,5.10
2018-05-15T14:58:07.560Z,6.13
2018-05-15T15:00:34.118Z,5.93
2018-05-15T15:03:00.361Z,5.40
2018-05-15T15:05:26.684Z,5.63
2018-05-15T15:07:52.909Z,5.97
2018-05-15T15:10:19.161Z,5.10
2018-05-15T15:12:45.331Z,5.80
2018-05-15T15:15:12.297Z,5.53
2018-05-15T15:17:38.732Z,6.37
2018-05-15T15:20:04.975Z,5.57
2018-05-15T15:22:31.188Z,5.27
2018-05-15T15:24:57.433Z,6.30
2018-05-15T15:27:23.659Z,5.27
2018-05-15T15:29:49.876Z,5.23
2018-05-15T15:32:16.070Z,5.20
2018-05-15T15:34:43.002Z,5.20
2018-05-15T15:37:09.209Z,5.47
2018-05-15T15:39:35.386Z,5.40
2018-05-15T15:42:02.394Z,6.60
2018-05-15T15:44:28.574Z,6.70
2018-05-15T15:46:54.806Z,5.83
2018-05-15T15:49:21.963Z,5.80
2018-05-15T15:51:48.212Z,6.20
2018-05-15T15:54:15.291Z,5.33
2018-05-15T15:56:41.569Z,5.40
2018-05-15T15:59:07.770Z,5.70
2018-05-15T16:01:34.703Z,5.87
2018-05-15T16:04:01.698Z,5.90
2018-05-15T16:06:28.050Z,6.63
2018-05-15T16:08:54.255Z,4.43
2018-05-15T16:11:20.518Z,5.07
2018-05-15T16:13:46.745Z,5.30
2018-05-15T16:16:14.141Z,5.20
2018-05-15T16:18:41.142Z,5.53
2018-05-15T16:21:07.327Z,6.80
2018-05-15T16:23:33.571Z,5.80
2018-05-15T16:25:59.820Z,5.43
2018-05-15T16:28:26.009Z,5.57
2018-05-15T16:30:52.957Z,5.10
2018-05-15T16:33:19.888Z,5.93
2018-05-15T16:35:47.627Z,5.80
2018-05-15T16:38:13.833Z,6.40
2018-05-15T16:40:40.225Z,5.60
2018-05-15T16:43:06.498Z,6.10
2018-05-15T16:45:32.783Z,5.67
2018-05-15T16:47:59.742Z,5.57
2018-05-15T16:50:26.923Z,6.00
2018-05-15T16:52:53.391Z,5.90
2018-05-15T16:55:19.988Z,6.20
2018-05-15T16:57:46.559Z,6.10
2018-05-15T17:00:13.812Z,6.00
2018-05-15T17:02:39.980Z,6.60
2018-05-15T17:05:06.948Z,6.50
2018-05-15T17:07:33.213Z,7.90
2018-05-15T17:09:59.776Z,7.30
2018-05-15T17:12:26.718Z,6.70
2018-05-15T17:14:53.669Z,7.00
2018-05-15T17:17:20.663Z,6.57
2018-05-15T17:19:47.986Z,7.03
2018-05-15T17:22:14.192Z,7.67
2018-05-15T17:27:30.786Z,7.60
2018-05-15T17:29:57.051Z,8.73
2018-05-15T17:32:23.997Z,8.33
2018-05-15T17:34:50.968Z,11.60
2018-05-15T17:37:17.295Z,11.17
2018-05-15T17:39:43.546Z,11.87
2018-05-15T17:42:10.654Z,9.10
2018-05-15T17:44:37.640Z,9.60
2018-05-15T17:47:05.968Z,9.07
2018-05-15T17:49:35.128Z,8.30
2018-05-15T17:52:05.644Z,8.60
2018-05-15T17:54:31.897Z,8.37
2018-05-15T17:56:58.116Z,7.77
2018-05-15T17:59:24.413Z,8.00
2018-05-15T18:01:53.172Z,7.67
2018-05-15T18:04:20.251Z,7.90
2018-05-15T18:06:46.856Z,7.73
2018-05-15T18:09:18.338Z,7.57
2018-05-15T18:11:45.110Z,7.40
2018-05-15T18:14:11.647Z,7.70
2018-05-15T18:16:38.060Z,7.50
2018-05-15T18:19:04.324Z,7.60
2018-05-15T18:21:33.001Z,6.77
2018-05-15T18:24:01.217Z,8.00
2018-05-15T18:26:30.303Z,8.87
2018-05-15T18:28:59.643Z,9.10
2018-05-15T18:31:26.411Z,5.27
2018-05-15T18:33:53.892Z,4.10
2018-05-15T18:36:20.159Z,3.40
2018-05-15T18:38:47.167Z,3.70
2018-05-15T18:41:13.629Z,2.80
2018-05-15T18:43:41.055Z,3.03
2018-05-15T18:46:08.790Z,3.30
2018-05-15T18:48:35.215Z,2.50
2018-05-15T18:51:02.612Z,3.17
2018-05-15T18:53:28.866Z,3.20
2018-05-15T18:56:06.224Z,3.37
2018-05-15T18:58:32.437Z,2.90
2018-05-15T19:00:58.892Z,2.80
2018-05-15T19:03:25.362Z,2.97
2018-05-15T19:05:52.726Z,3.00
2018-05-15T19:18:08.215Z,2.90
2018-05-15T19:20:34.734Z,3.00
2018-05-15T19:23:02.454Z,3.23
2018-05-15T19:25:31.483Z,3.87
2018-05-15T19:27:58.115Z,3.63
2018-05-15T19:30:26.355Z,3.60
2018-05-15T19:32:59.181Z,2.83
2018-05-15T19:35:29.540Z,3.00
2018-05-15T19:37:56.068Z,3.40
2018-05-15T19:40:41.172Z,3.40
2018-05-15T19:43:08.662Z,4.10
2018-05-15T19:45:36.165Z,4.50
2018-05-15T19:48:03.158Z,4.47
2018-05-15T19:50:30.174Z,4.77
2018-05-15T19:52:56.604Z,4.00
2018-05-15T19:55:23.857Z,3.90
2018-05-15T19:57:50.139Z,3.50
2018-05-15T20:00:16.416Z,3.67
2018-05-15T20:02:43.809Z,3.10
2018-05-15T20:05:10.802Z,3.80
2018-05-15T20:07:37.031Z,3.70
2018-05-15T20:10:04.142Z,3.50
2018-05-15T20:12:31.169Z,3.83
2018-05-15T20:14:57.485Z,3.10
2018-05-15T20:17:23.886Z,3.20
2018-05-15T20:19:50.068Z,3.50
2018-05-15T20:22:16.353Z,4.20
2018-05-15T20:24:42.644Z,4.00
2018-05-15T20:27:09.570Z,4.73
2018-05-15T20:29:36.554Z,4.25
2018-05-15T20:32:02.769Z,4.47
2018-05-15T20:34:29.689Z,4.10
2018-05-15T20:36:56.291Z,4.37
2018-05-15T20:39:22.868Z,3.63
2018-05-15T20:41:49.095Z,4.07
2018-05-15T20:44:15.267Z,3.40
2018-05-15T20:46:41.488Z,3.87
2018-05-15T20:49:08.302Z,3.90
2018-05-15T20:51:34.516Z,3.63
2018-05-15T20:54:01.761Z,3.40
2018-05-15T20:56:28.818Z,3.67
2018-05-15T20:58:55.442Z,4.17
2018-05-15T21:01:21.628Z,3.27
2018-05-15T21:03:47.847Z,3.67
2018-05-15T21:06:16.921Z,3.33
2018-05-15T21:08:43.117Z,4.00
2018-05-15T21:11:09.306Z,4.83
2018-05-15T21:13:35.933Z,4.77
2018-05-15T21:16:02.288Z,5.73
2018-05-15T21:18:28.510Z,3.87
2018-05-15T21:20:54.772Z,4.30
2018-05-15T21:23:20.956Z,4.70
2018-05-15T21:25:47.920Z,4.30
2018-05-15T21:28:14.118Z,4.27
2018-05-15T21:30:41.159Z,4.77
2018-05-15T21:33:08.124Z,4.47
2018-05-15T21:35:34.514Z,5.00
2018-05-15T21:38:00.710Z,4.63
2018-05-15T21:40:26.914Z,4.80
2018-05-15T21:42:53.140Z,4.70
2018-05-15T21:45:19.370Z,4.47
2018-05-15T21:57:35.681Z,4.80
2018-05-15T22:00:02.572Z,3.70
2018-05-15T22:02:29.525Z,3.80
2018-05-15T22:04:57.444Z,4.00
2018-05-15T22:07:23.994Z,4.27
2018-05-15T22:09:50.200Z,4.53
2018-05-15T22:12:28.784Z,3.63
2018-05-15T22:15:07.219Z,3.47
2018-05-15T22:17:45.750Z,4.20
2018-05-15T22:20:24.333Z,4.53
2018-05-15T22:22:50.363Z,3.90
2018-05-15T22:25:16.550Z,4.70
2018-05-15T22:27:43.325Z,3.60
2018-05-15T22:30:09.584Z,4.37
2018-05-15T22:32:35.806Z,4.27
2018-05-15T22:35:01.996Z,4.60
2018-05-15T22:37:28.992Z,3.70
2018-05-15T22:39:55.181Z,4.03
2018-05-15T22:42:24.154Z,4.20
2018-05-15T22:44:51.168Z,3.90
2018-05-15T22:47:17.345Z,4.13
2018-05-15T22:49:44.334Z,4.23
2018-05-15T22:52:11.351Z,3.87
2018-05-15T22:54:39.262Z,4.10
2018-05-15T22:57:05.428Z,4.03
2018-05-15T22:59:32.406Z,4.23
2018-05-15T23:01:58.563Z,4.57
2018-05-15T23:04:26.605Z,4.10
2018-05-15T23:06:52.748Z,4.50
2018-05-15T23:09:18.955Z,4.57
2018-05-15T23:11:45.195Z,4.17
2018-05-15T23:14:11.417Z,4.20
2018-05-15T23:16:37.680Z,4.30
2018-05-15T23:21:53.943Z,3.80
2018-05-15T23:24:20.887Z,3.83
2018-05-15T23:26:48.613Z,4.13
2018-05-15T23:29:15.637Z,3.70
2018-05-15T23:31:41.901Z,3.80
2018-05-15T23:43:53.108Z,4.90
2018-05-15T23:46:19.314Z,4.67
2018-05-15T23:48:46.215Z,4.57
2018-05-15T23:51:12.436Z,4.73
2018-05-15T23:53:38.636Z,4.30
2018-05-15T23:56:05.623Z,4.43
